sensor_id;sensor_type;location;lat;lon;timestamp;pressure;altitude;pressure_sealevel;temperature;humidity
71791;BME280;59638;52.126;5.434;2022-10-12T00:01:29;102756.97;;;5.77;100.00
71791;BME280;59638;52.126;5.434;2022-10-12T00:03:56;102757.13;;;5.72;100.00
71791;BME280;59638;52.126;5.434;2022-10-12T00:06:23;102759.19;;;5.64;100.00
71791;BME280;59638;52.126;5.434;2022-10-12T00:08:51;102752.56;;;5.56;100.00
71791;BME280;59638;52.126;5.434;2022-10-12T00:11:23;102756.31;;;5.49;100.00
71791;BME280;59638;52.126;5.434;2022-10-12T00:13:51;102757.28;;;5.46;100.00
71791;BME280;59638;52.126;5.434;2022-10-12T00:16:19;102761.03;;;5.39;100.00
71791;BME280;59638;52.126;5.434;2022-10-12T00:18:52;102755.94;;;5.36;100.00
71791;BME280;59638;52.126;5.434;2022-10-12T00:21:19;102753.41;;;5.33;100.00
71791;BME280;59638;52.126;5.434;2022-10-12T00:23:46;102752.72;;;5.28;100.00
71791;BME280;59638;52.126;5.434;2022-10-12T00:26:15;102754.59;;;5.24;100.00
71791;BME280;59638;52.126;5.434;2022-10-12T00:28:42;102751.22;;;5.21;100.00
71791;BME280;59638;52.126;5.434;2022-10-12T00:31:11;102754.78;;;5.19;100.00
71791;BME280;59638;52.126;5.434;2022-10-12T00:33:38;102753.00;;;5.20;100.00
71791;BME280;59638;52.126;5.434;2022-10-12T00:36:18;102753.06;;;5.18;100.00
71791;BME280;59638;52.126;5.434;2022-10-12T00:38:46;102756.44;;;5.22;100.00
71791;BME280;59638;52.126;5.434;2022-10-12T00:41:14;102748.69;;;5.19;100.00
71791;BME280;59638;52.126;5.434;2022-10-12T00:43:42;102738.22;;;5.19;100.00
71791;BME280;59638;52.126;5.434;2022-10-12T00:46:32;102743.59;;;5.14;100.00
71791;BME280;59638;52.126;5.434;2022-10-12T00:49:19;102742.81;;;5.12;100.00
71791;BME280;59638;52.126;5.434;2022-10-12T00:51:50;102746.34;;;5.11;100.00
71791;BME280;59638;52.126;5.434;2022-10-12T00:54:25;102752.66;;;5.06;100.00
71791;BME280;59638;52.126;5.434;2022-10-12T00:56:54;102740.06;;;4.92;100.00
71791;BME280;59638;52.126;5.434;2022-10-12T00:59:25;102745.63;;;4.83;100.00
71791;BME280;59638;52.126;5.434;2022-10-12T01:01:53;102747.50;;;4.79;100.00
71791;BME280;59638;52.126;5.434;2022-10-12T01:04:20;102736.50;;;4.70;100.00
71791;BME280;59638;52.126;5.434;2022-10-12T01:06:48;102735.81;;;4.64;100.00
71791;BME280;59638;52.126;5.434;2022-10-12T01:09:14;102743.72;;;4.63;100.00
71791;BME280;59638;52.126;5.434;2022-10-12T01:11:41;102741.25;;;4.58;100.00
71791;BME280;59638;52.126;5.434;2022-10-12T01:14:07;102739.75;;;4.51;100.00
71791;BME280;59638;52.126;5.434;2022-10-12T01:16:38;102742.63;;;4.44;100.00
71791;BME280;59638;52.126;5.434;2022-10-12T01:19:24;102742.66;;;4.42;100.00
71791;BME280;59638;52.126;5.434;2022-10-12T01:22:01;102739.19;;;4.42;100.00
71791;BME280;59638;52.126;5.434;2022-10-12T01:27:46;102731.53;;;4.37;100.00
71791;BME280;59638;52.126;5.434;2022-10-12T01:30:16;102728.09;;;4.35;100.00
71791;BME280;59638;52.126;5.434;2022-10-12T01:33:16;102724.69;;;4.33;100.00
71791;BME280;59638;52.126;5.434;2022-10-12T01:35:53;102722.97;;;4.32;100.00
71791;BME280;59638;52.126;5.434;2022-10-12T01:38:42;102726.50;;;4.31;100.00
71791;BME280;59638;52.126;5.434;2022-10-12T01:41:43;102732.63;;;4.30;100.00
71791;BME280;59638;52.126;5.434;2022-10-12T01:44:10;102723.06;;;4.29;100.00
71791;BME280;59638;52.126;5.434;2022-10-12T01:46:40;102719.56;;;4.30;100.00
71791;BME280;59638;52.126;5.434;2022-10-12T01:49:07;102732.63;;;4.30;100.00
71791;BME280;59638;52.126;5.434;2022-10-12T01:54:56;102719.56;;;4.30;100.00
71791;BME280;59638;52.126;5.434;2022-10-12T02:00:11;102719.25;;;4.39;100.00
71791;BME280;59638;52.126;5.434;2022-10-12T02:05:23;102707.06;;;4.38;100.00
71791;BME280;59638;52.126;5.434;2022-10-12T02:08:02;102708.91;;;4.36;100.00
71791;BME280;59638;52.126;5.434;2022-10-12T02:10:45;102710.59;;;4.37;100.00
71791;BME280;59638;52.126;5.434;2022-10-12T02:13:14;102707.16;;;4.35;100.00
71791;BME280;59638;52.126;5.434;2022-10-12T02:15:43;102714.13;;;4.36;100.00
71791;BME280;59638;52.126;5.434;2022-10-12T02:18:13;102712.41;;;4.35;100.00
71791;BME280;59638;52.126;5.434;2022-10-12T02:20:41;102714.13;;;4.36;100.00
71791;BME280;59638;52.126;5.434;2022-10-12T02:23:09;102709.69;;;4.38;100.00
71791;BME280;59638;52.126;5.434;2022-10-12T02:25:35;102702.59;;;4.42;100.00
71791;BME280;59638;52.126;5.434;2022-10-12T02:28:08;102696.28;;;4.47;100.00
71791;BME280;59638;52.126;5.434;2022-10-12T02:30:49;102690.13;;;4.50;100.00
71791;BME280;59638;52.126;5.434;2022-10-12T02:36:10;102690.00;;;4.53;100.00
71791;BME280;59638;52.126;5.434;2022-10-12T02:38:47;102685.75;;;4.50;100.00
71791;BME280;59638;52.126;5.434;2022-10-12T02:41:22;102678.81;;;4.49;100.00
71791;BME280;59638;52.126;5.434;2022-10-12T02:43:55;102671.84;;;4.48;100.00
71791;BME280;59638;52.126;5.434;2022-10-12T02:46:25;102674.44;;;4.50;100.00
71791;BME280;59638;52.126;5.434;2022-10-12T02:48:53;102668.22;;;4.52;100.00
71791;BME280;59638;52.126;5.434;2022-10-12T02:51:21;102673.47;;;4.52;100.00
71791;BME280;59638;52.126;5.434;2022-10-12T02:53:49;102677.00;;;4.51;100.00
71791;BME280;59638;52.126;5.434;2022-10-12T02:56:15;102674.47;;;4.48;100.00
71791;BME280;59638;52.126;5.434;2022-10-12T02:58:43;102669.28;;;4.47;100.00
71791;BME280;59638;52.126;5.434;2022-10-12T03:01:10;102672.81;;;4.46;100.00
71791;BME280;59638;52.126;5.434;2022-10-12T03:03:37;102674.66;;;4.42;100.00
71791;BME280;59638;52.126;5.434;2022-10-12T03:06:04;102669.56;;;4.39;100.00
71791;BME280;59638;52.126;5.434;2022-10-12T03:08:30;102662.72;;;4.35;100.00
71791;BME280;59638;52.126;5.434;2022-10-12T03:11:01;102665.47;;;4.32;100.00
71791;BME280;59638;52.126;5.434;2022-10-12T03:13:28;102665.53;;;4.29;100.00
71791;BME280;59638;52.126;5.434;2022-10-12T03:16:05;102667.56;;;4.21;100.00
71791;BME280;59638;52.126;5.434;2022-10-12T03:18:32;102671.22;;;4.17;100.00
71791;BME280;59638;52.126;5.434;2022-10-12T03:20:59;102662.66;;;4.12;100.00
71791;BME280;59638;52.126;5.434;2022-10-12T03:23:26;102667.13;;;4.08;100.00
71791;BME280;59638;52.126;5.434;2022-10-12T03:25:53;102662.94;;;4.04;100.00
71791;BME280;59638;52.126;5.434;2022-10-12T03:28:19;102666.47;;;4.01;100.00
71791;BME280;59638;52.126;5.434;2022-10-12T03:30:46;102666.44;;;4.03;100.00
71791;BME280;59638;52.126;5.434;2022-10-12T03:33:12;102661.25;;;4.01;100.00
71791;BME280;59638;52.126;5.434;2022-10-12T03:35:39;102670.84;;;4.01;100.00
71791;BME280;59638;52.126;5.434;2022-10-12T03:38:05;102665.75;;;3.98;100.00
71791;BME280;59638;52.126;5.434;2022-10-12T03:40:31;102658.84;;;3.95;100.00
71791;BME280;59638;52.126;5.434;2022-10-12T03:42:58;102665.88;;;3.93;100.00
71791;BME280;59638;52.126;5.434;2022-10-12T03:45:24;102661.56;;;3.92;100.00
71791;BME280;59638;52.126;5.434;2022-10-12T03:47:50;102661.66;;;3.89;100.00
71791;BME280;59638;52.126;5.434;2022-10-12T03:50:17;102658.34;;;3.84;100.00
71791;BME280;59638;52.126;5.434;2022-10-12T03:52:43;102659.22;;;3.85;100.00
71791;BME280;59638;52.126;5.434;2022-10-12T03:55:09;102665.38;;;3.82;100.00
71791;BME280;59638;52.126;5.434;2022-10-12T03:57:36;102666.38;;;3.78;100.00
71791;BME280;59638;52.126;5.434;2022-10-12T04:00:03;102655.22;;;3.73;100.00
71791;BME280;59638;52.126;5.434;2022-10-12T04:02:30;102655.34;;;3.70;100.00
71791;BME280;59638;52.126;5.434;2022-10-12T04:04:56;102650.38;;;3.61;100.00
71791;BME280;59638;52.126;5.434;2022-10-12T04:07:23;102654.09;;;3.53;100.00
71791;BME280;59638;52.126;5.434;2022-10-12T04:09:49;102649.00;;;3.50;100.00
71791;BME280;59638;52.126;5.434;2022-10-12T04:12:16;102647.34;;;3.46;100.00
71791;BME280;59638;52.126;5.434;2022-10-12T04:14:42;102650.09;;;3.42;100.00
71791;BME280;59638;52.126;5.434;2022-10-12T04:17:08;102651.13;;;3.36;100.00
71791;BME280;59638;52.126;5.434;2022-10-12T04:19:35;102650.47;;;3.30;100.00
71791;BME280;59638;52.126;5.434;2022-10-12T04:22:02;102654.94;;;3.26;100.00
71791;BME280;59638;52.126;5.434;2022-10-12T04:24:28;102655.13;;;3.20;100.00
71791;BME280;59638;52.126;5.434;2022-10-12T04:26:54;102648.22;;;3.19;100.00
71791;BME280;59638;52.126;5.434;2022-10-12T04:29:21;102653.47;;;3.17;100.00
71791;BME280;59638;52.126;5.434;2022-10-12T04:31:47;102650.09;;;3.14;100.00
71791;BME280;59638;52.126;5.434;2022-10-12T04:34:14;102653.59;;;3.13;100.00
71791;BME280;59638;52.126;5.434;2022-10-12T04:36:40;102650.28;;;3.08;100.00
71791;BME280;59638;52.126;5.434;2022-10-12T04:39:06;102650.28;;;3.08;100.00
71791;BME280;59638;52.126;5.434;2022-10-12T04:41:33;102647.59;;;3.11;100.00
71791;BME280;59638;52.126;5.434;2022-10-12T04:43:59;102643.25;;;3.10;100.00
71791;BME280;59638;52.126;5.434;2022-10-12T04:46:26;102649.31;;;3.10;100.00
71791;BME280;59638;52.126;5.434;2022-10-12T04:48:52;102645.84;;;3.10;100.00
71791;BME280;59638;52.126;5.434;2022-10-12T04:51:19;102654.59;;;3.09;100.00
71791;BME280;59638;52.126;5.434;2022-10-12T04:53:45;102650.38;;;3.05;100.00
71791;BME280;59638;52.126;5.434;2022-10-12T04:56:11;102649.59;;;3.01;100.00
71791;BME280;59638;52.126;5.434;2022-10-12T04:58:38;102644.50;;;2.96;100.00
71791;BME280;59638;52.126;5.434;2022-10-12T05:01:04;102652.31;;;2.96;100.00
71791;BME280;59638;52.126;5.434;2022-10-12T05:03:31;102653.19;;;2.97;100.00
71791;BME280;59638;52.126;5.434;2022-10-12T05:05:57;102651.47;;;2.97;100.00
71791;BME280;59638;52.126;5.434;2022-10-12T05:08:23;102654.06;;;2.97;100.00
71791;BME280;59638;52.126;5.434;2022-10-12T05:10:50;102652.31;;;2.96;100.00
71791;BME280;59638;52.126;5.434;2022-10-12T05:13:17;102644.47;;;2.98;100.00
71791;BME280;59638;52.126;5.434;2022-10-12T05:15:44;102643.69;;;2.94;100.00
71791;BME280;59638;52.126;5.434;2022-10-12T05:18:10;102640.38;;;2.89;100.00
71791;BME280;59638;52.126;5.434;2022-10-12T05:20:36;102637.75;;;2.89;100.00
71791;BME280;59638;52.126;5.434;2022-10-12T05:23:03;102636.06;;;2.88;100.00
71791;BME280;59638;52.126;5.434;2022-10-12T05:25:29;102642.22;;;2.86;100.00
71791;BME280;59638;52.126;5.434;2022-10-12T05:27:56;102643.97;;;2.85;100.00
71791;BME280;59638;52.126;5.434;2022-10-12T05:30:23;102631.84;;;2.84;100.00
71791;BME280;59638;52.126;5.434;2022-10-12T05:32:49;102624.88;;;2.83;100.00
71791;BME280;59638;52.126;5.434;2022-10-12T05:35:16;102630.09;;;2.83;100.00
71791;BME280;59638;52.126;5.434;2022-10-12T05:37:42;102625.94;;;2.78;100.00
71791;BME280;59638;52.126;5.434;2022-10-12T05:40:09;102630.28;;;2.77;100.00
71791;BME280;59638;52.126;5.434;2022-10-12T05:42:35;102635.50;;;2.77;100.00
71791;BME280;59638;52.126;5.434;2022-10-12T05:45:03;102636.38;;;2.78;100.00
71791;BME280;59638;52.126;5.434;2022-10-12T05:47:30;102633.78;;;2.76;100.00
71791;BME280;59638;52.126;5.434;2022-10-12T05:49:56;102639.00;;;2.76;100.00
71791;BME280;59638;52.126;5.434;2022-10-12T05:52:23;102637.19;;;2.80;100.00
71791;BME280;59638;52.126;5.434;2022-10-12T05:54:49;102638.09;;;2.79;100.00
71791;BME280;59638;52.126;5.434;2022-10-12T05:57:15;102640.63;;;2.80;100.00
71791;BME280;59638;52.126;5.434;2022-10-12T05:59:42;102637.06;;;2.84;100.00
71791;BME280;59638;52.126;5.434;2022-10-12T06:02:15;102636.91;;;2.89;100.00
71791;BME280;59638;52.126;5.434;2022-10-12T06:04:42;102632.47;;;2.92;100.00
71791;BME280;59638;52.126;5.434;2022-10-12T06:07:09;102633.28;;;2.94;100.00
71791;BME280;59638;52.126;5.434;2022-10-12T06:09:35;102633.19;;;2.97;100.00
71791;BME280;59638;52.126;5.434;2022-10-12T06:12:05;102629.69;;;2.98;100.00
71791;BME280;59638;52.126;5.434;2022-10-12T06:14:32;102622.56;;;3.04;100.00
71791;BME280;59638;52.126;5.434;2022-10-12T06:16:58;102625.88;;;3.09;100.00
71791;BME280;59638;52.126;5.434;2022-10-12T06:19:24;102620.59;;;3.12;100.00
71791;BME280;59638;52.126;5.434;2022-10-12T06:21:51;102616.97;;;3.16;100.00
71791;BME280;59638;52.126;5.434;2022-10-12T06:24:17;102618.59;;;3.20;100.00
71791;BME280;59638;52.126;5.434;2022-10-12T06:26:43;102612.41;;;3.22;100.00
71791;BME280;59638;52.126;5.434;2022-10-12T06:29:10;102611.50;;;3.25;100.00
71791;BME280;59638;52.126;5.434;2022-10-12T06:31:36;102614.91;;;3.27;100.00
71791;BME280;59638;52.126;5.434;2022-10-12T06:34:05;102607.91;;;3.27;100.00
71791;BME280;59638;52.126;5.434;2022-10-12T06:36:31;102620.00;;;3.30;100.00
71791;BME280;59638;52.126;5.434;2022-10-12T06:38:57;102627.81;;;3.32;100.00
71791;BME280;59638;52.126;5.434;2022-10-12T06:41:24;102623.44;;;3.32;100.00
71791;BME280;59638;52.126;5.434;2022-10-12T06:43:50;102628.66;;;3.32;100.00
71791;BME280;59638;52.126;5.434;2022-10-12T06:46:17;102639.09;;;3.32;100.00
71791;BME280;59638;52.126;5.434;2022-10-12T06:48:43;102632.06;;;3.34;100.00
71791;BME280;59638;52.126;5.434;2022-10-12T06:51:10;102624.16;;;3.37;100.00
71791;BME280;59638;52.126;5.434;2022-10-12T06:53:36;102617.94;;;3.41;100.00
71791;BME280;59638;52.126;5.434;2022-10-12T06:56:09;102623.06;;;3.44;100.00
71791;BME280;59638;52.126;5.434;2022-10-12T06:58:36;102620.28;;;3.50;100.00
71791;BME280;59638;52.126;5.434;2022-10-12T07:01:07;102619.06;;;3.61;100.00
71791;BME280;59638;52.126;5.434;2022-10-12T07:03:35;102616.97;;;3.72;100.00
71791;BME280;59638;52.126;5.434;2022-10-12T07:06:10;102613.88;;;3.86;100.00
71791;BME280;59638;52.126;5.434;2022-10-12T07:08:37;102616.16;;;3.96;100.00
71791;BME280;59638;52.126;5.434;2022-10-12T07:11:05;102616.34;;;4.15;100.00
71791;BME280;59638;52.126;5.434;2022-10-12T07:13:32;102616.28;;;4.43;100.00
71791;BME280;59638;52.126;5.434;2022-10-12T07:15:59;102610.19;;;4.66;100.00
71791;BME280;59638;52.126;5.434;2022-10-12T07:18:25;102604.44;;;4.80;100.00
71791;BME280;59638;52.126;5.434;2022-10-12T07:20:52;102601.16;;;4.98;100.00
71791;BME280;59638;52.126;5.434;2022-10-12T07:23:20;102596.13;;;5.15;100.00
71791;BME280;59638;52.126;5.434;2022-10-12T07:25:48;102604.97;;;5.35;100.00
71791;BME280;59638;52.126;5.434;2022-10-12T07:28:15;102593.91;;;5.70;100.00
71791;BME280;59638;52.126;5.434;2022-10-12T07:30:42;102598.88;;;5.98;100.00
71791;BME280;59638;52.126;5.434;2022-10-12T07:33:08;102595.53;;;6.15;100.00
71791;BME280;59638;52.126;5.434;2022-10-12T07:35:34;102583.22;;;6.17;100.00
71791;BME280;59638;52.126;5.434;2022-10-12T07:38:16;102595.91;;;6.26;100.00
71791;BME280;59638;52.126;5.434;2022-10-12T07:40:43;102601.88;;;6.69;100.00
71791;BME280;59638;52.126;5.434;2022-10-12T07:43:09;102602.47;;;6.95;99.11
71791;BME280;59638;52.126;5.434;2022-10-12T07:45:42;102605.84;;;7.16;99.20
71791;BME280;59638;52.126;5.434;2022-10-12T07:48:08;102613.81;;;7.33;97.74
71791;BME280;59638;52.126;5.434;2022-10-12T07:50:35;102614.38;;;7.40;97.19
71791;BME280;59638;52.126;5.434;2022-10-12T07:53:01;102607.63;;;7.51;96.67
71791;BME280;59638;52.126;5.434;2022-10-12T07:55:29;102604.97;;;7.87;96.15
71791;BME280;59638;52.126;5.434;2022-10-12T07:58:00;102601.53;;;8.55;95.56
71791;BME280;59638;52.126;5.434;2022-10-12T08:00:27;102598.06;;;9.65;94.04
71791;BME280;59638;52.126;5.434;2022-10-12T08:02:54;102585.44;;;10.44;90.09
71791;BME280;59638;52.126;5.434;2022-10-12T08:05:20;102595.63;;;9.76;89.13
71791;BME280;59638;52.126;5.434;2022-10-12T08:07:50;102603.38;;;9.33;88.89
71791;BME280;59638;52.126;5.434;2022-10-12T08:10:18;102607.38;;;9.24;89.87
71791;BME280;59638;52.126;5.434;2022-10-12T08:12:45;102598.34;;;10.04;89.42
71791;BME280;59638;52.126;5.434;2022-10-12T08:15:17;102592.16;;;10.20;87.70
71791;BME280;59638;52.126;5.434;2022-10-12T08:17:43;102598.72;;;9.98;87.54
71791;BME280;59638;52.126;5.434;2022-10-12T08:20:10;102607.03;;;10.06;87.25
71791;BME280;59638;52.126;5.434;2022-10-12T08:22:36;102597.94;;;10.83;86.09
71791;BME280;59638;52.126;5.434;2022-10-12T08:25:03;102608.97;;;11.58;84.30
71791;BME280;59638;52.126;5.434;2022-10-12T08:27:30;102602.16;;;12.96;80.61
71791;BME280;59638;52.126;5.434;2022-10-12T08:29:57;102605.28;;;12.64;79.34
71791;BME280;59638;52.126;5.434;2022-10-12T08:32:23;102610.72;;;12.50;79.69
71791;BME280;59638;52.126;5.434;2022-10-12T08:34:50;102602.69;;;13.73;77.26
71791;BME280;59638;52.126;5.434;2022-10-12T08:37:17;102599.56;;;15.15;73.61
71791;BME280;59638;52.126;5.434;2022-10-12T08:39:43;102595.22;;;16.41;69.75
71791;BME280;59638;52.126;5.434;2022-10-12T08:42:26;102591.72;;;17.30;65.40
71791;BME280;59638;52.126;5.434;2022-10-12T08:48:17;102604.66;;;17.54;64.43
71791;BME280;59638;52.126;5.434;2022-10-12T08:50:55;102598.72;;;17.22;64.51
71791;BME280;59638;52.126;5.434;2022-10-12T08:53:46;102595.13;;;17.90;62.64
71791;BME280;59638;52.126;5.434;2022-10-12T08:56:16;102579.69;;;18.96;59.91
71791;BME280;59638;52.126;5.434;2022-10-12T08:58:44;102589.59;;;19.49;57.87
71791;BME280;59638;52.126;5.434;2022-10-12T09:04:01;102581.31;;;19.60;56.61
71791;BME280;59638;52.126;5.434;2022-10-12T09:06:39;102583.56;;;19.91;55.52
71791;BME280;59638;52.126;5.434;2022-10-12T09:14:42;102587.00;;;20.95;52.89
71791;BME280;59638;52.126;5.434;2022-10-12T09:17:26;102593.78;;;21.32;53.48
71791;BME280;59638;52.126;5.434;2022-10-12T09:20:16;102596.00;;;21.77;53.75
71791;BME280;59638;52.126;5.434;2022-10-12T09:22:52;102588.34;;;22.46;50.12
71791;BME280;59638;52.126;5.434;2022-10-12T09:25:25;102582.81;;;23.10;49.58
71791;BME280;59638;52.126;5.434;2022-10-12T09:27:53;102584.34;;;22.34;50.03
71791;BME280;59638;52.126;5.434;2022-10-12T09:30:22;102585.09;;;22.50;48.06
71791;BME280;59638;52.126;5.434;2022-10-12T09:33:04;102578.38;;;22.55;47.97
71791;BME280;59638;52.126;5.434;2022-10-12T09:35:35;102577.56;;;22.85;47.69
71791;BME280;59638;52.126;5.434;2022-10-12T09:38:02;102573.13;;;23.00;47.23
71791;BME280;59638;52.126;5.434;2022-10-12T09:40:30;102571.50;;;23.37;45.03
71791;BME280;59638;52.126;5.434;2022-10-12T09:43:02;102570.03;;;24.10;45.76
71791;BME280;59638;52.126;5.434;2022-10-12T09:45:29;102561.28;;;24.23;43.66
71791;BME280;59638;52.126;5.434;2022-10-12T09:50:50;102563.91;;;22.56;45.54
71791;BME280;59638;52.126;5.434;2022-10-12T09:53:21;102573.44;;;22.27;46.30
71791;BME280;59638;52.126;5.434;2022-10-12T09:55:58;102567.69;;;23.09;45.97
71791;BME280;59638;52.126;5.434;2022-10-12T09:58:26;102568.44;;;21.99;47.23
71791;BME280;59638;52.126;5.434;2022-10-12T10:01:14;102562.09;;;22.48;48.38
71791;BME280;59638;52.126;5.434;2022-10-12T10:03:47;102577.41;;;20.92;49.12
71791;BME280;59638;52.126;5.434;2022-10-12T10:06:13;102566.63;;;20.42;51.16
71791;BME280;59638;52.126;5.434;2022-10-12T10:08:44;102556.84;;;21.91;48.67
71791;BME280;59638;52.126;5.434;2022-10-12T10:11:29;102544.16;;;22.24;48.38
71791;BME280;59638;52.126;5.434;2022-10-12T10:13:58;102550.13;;;19.95;51.40
71791;BME280;59638;52.126;5.434;2022-10-12T10:16:27;102540.16;;;19.61;52.24
71791;BME280;59638;52.126;5.434;2022-10-12T10:18:56;102542.06;;;20.55;50.39
71791;BME280;59638;52.126;5.434;2022-10-12T10:23:59;102542.16;;;22.65;46.82
71791;BME280;59638;52.126;5.434;2022-10-12T10:26:29;102536.47;;;23.37;44.31
71791;BME280;59638;52.126;5.434;2022-10-12T10:29:22;102532.84;;;23.07;46.41
71791;BME280;59638;52.126;5.434;2022-10-12T10:32:06;102540.22;;;21.22;47.28
71791;BME280;59638;52.126;5.434;2022-10-12T10:34:40;102539.22;;;20.56;48.01
71791;BME280;59638;52.126;5.434;2022-10-12T10:37:16;102536.25;;;19.38;51.19
71791;BME280;59638;52.126;5.434;2022-10-12T10:39:47;102534.75;;;18.72;51.97
71791;BME280;59638;52.126;5.434;2022-10-12T10:42:21;102532.13;;;19.87;52.05
71791;BME280;59638;52.126;5.434;2022-10-12T10:44:58;102537.47;;;20.81;49.62
71791;BME280;59638;52.126;5.434;2022-10-12T10:47:27;102532.09;;;22.12;47.41
71791;BME280;59638;52.126;5.434;2022-10-12T10:49:55;102530.56;;;23.65;44.87
71791;BME280;59638;52.126;5.434;2022-10-12T10:52:30;102529.47;;;24.33;42.40
71791;BME280;59638;52.126;5.434;2022-10-12T10:57:39;102524.56;;;26.49;40.46
71791;BME280;59638;52.126;5.434;2022-10-12T11:00:13;102521.63;;;26.09;38.24
71791;BME280;59638;52.126;5.434;2022-10-12T11:03:05;102514.41;;;25.88;38.48
71791;BME280;59638;52.126;5.434;2022-10-12T11:05:44;102507.78;;;25.91;40.73
71791;BME280;59638;52.126;5.434;2022-10-12T11:08:18;102489.31;;;26.42;37.25
71791;BME280;59638;52.126;5.434;2022-10-12T11:10:58;102491.56;;;27.06;36.94
71791;BME280;59638;52.126;5.434;2022-10-12T11:13:42;102493.25;;;27.07;37.27
71791;BME280;59638;52.126;5.434;2022-10-12T11:16:32;102483.19;;;26.27;38.29
71791;BME280;59638;52.126;5.434;2022-10-12T11:19:17;102469.84;;;27.00;36.31
71791;BME280;59638;52.126;5.434;2022-10-12T11:21:49;102469.75;;;25.15;36.25
71791;BME280;59638;52.126;5.434;2022-10-12T11:24:20;102463.69;;;24.91;37.24
71791;BME280;59638;52.126;5.434;2022-10-12T11:26:52;102455.06;;;25.24;37.67
71791;BME280;59638;52.126;5.434;2022-10-12T11:29:20;102443.13;;;24.90;38.50
71791;BME280;59638;52.126;5.434;2022-10-12T11:32:04;102427.63;;;26.38;37.27
71791;BME280;59638;52.126;5.434;2022-10-12T11:35:02;102427.63;;;25.55;37.28
71791;BME280;59638;52.126;5.434;2022-10-12T11:37:42;102419.28;;;25.50;37.00
71791;BME280;59638;52.126;5.434;2022-10-12T11:40:20;102409.72;;;26.37;35.21
71791;BME280;59638;52.126;5.434;2022-10-12T11:43:11;102423.22;;;24.19;37.63
71791;BME280;59638;52.126;5.434;2022-10-12T11:45:41;102423.53;;;23.80;37.88
71791;BME280;59638;52.126;5.434;2022-10-12T11:48:12;102423.78;;;23.55;39.49
71791;BME280;59638;52.126;5.434;2022-10-12T11:50:42;102410.81;;;25.60;37.07
71791;BME280;59638;52.126;5.434;2022-10-12T11:53:43;102400.81;;;25.26;37.57
71791;BME280;59638;52.126;5.434;2022-10-12T11:56:21;102406.66;;;22.50;40.02
71791;BME280;59638;52.126;5.434;2022-10-12T11:58:53;102412.28;;;20.48;44.02
71791;BME280;59638;52.126;5.434;2022-10-12T12:01:42;102418.94;;;19.15;47.03
71791;BME280;59638;52.126;5.434;2022-10-12T12:04:28;102422.38;;;18.27;49.01
71791;BME280;59638;52.126;5.434;2022-10-12T12:07:39;102415.44;;;18.97;50.85
71791;BME280;59638;52.126;5.434;2022-10-12T12:18:17;102427.66;;;16.86;53.17
71791;BME280;59638;52.126;5.434;2022-10-12T12:23:25;102425.09;;;16.06;55.42
71791;BME280;59638;52.126;5.434;2022-10-12T12:28:31;102414.00;;;15.70;57.18
71791;BME280;59638;52.126;5.434;2022-10-12T12:31:05;102410.13;;;15.74;57.12
71791;BME280;59638;52.126;5.434;2022-10-12T12:33:34;102412.91;;;15.72;59.02
71791;BME280;59638;52.126;5.434;2022-10-12T12:36:05;102412.47;;;15.67;59.35
71791;BME280;59638;52.126;5.434;2022-10-12T12:38:33;102405.13;;;15.60;59.62
71791;BME280;59638;52.126;5.434;2022-10-12T12:41:05;102393.38;;;15.41;59.67
71791;BME280;59638;52.126;5.434;2022-10-12T12:46:01;102392.75;;;15.28;60.90
71791;BME280;59638;52.126;5.434;2022-10-12T12:51:12;102385.44;;;15.72;58.95
71791;BME280;59638;52.126;5.434;2022-10-12T12:54:06;102387.28;;;16.12;58.40
71791;BME280;59638;52.126;5.434;2022-10-12T12:56:50;102386.03;;;16.35;57.39
71791;BME280;59638;52.126;5.434;2022-10-12T13:02:44;102389.28;;;16.48;58.10
71791;BME280;59638;52.126;5.434;2022-10-12T13:14:25;102386.84;;;15.76;60.41
71791;BME280;59638;52.126;5.434;2022-10-12T13:20:20;102387.78;;;15.44;61.51
71791;BME280;59638;52.126;5.434;2022-10-12T13:22:48;102383.78;;;15.29;61.59
71791;BME280;59638;52.126;5.434;2022-10-12T13:25:28;102382.63;;;15.22;63.09
71791;BME280;59638;52.126;5.434;2022-10-12T13:27:57;102378.94;;;15.13;62.46
71791;BME280;59638;52.126;5.434;2022-10-12T13:33:04;102380.81;;;15.02;63.81
71791;BME280;59638;52.126;5.434;2022-10-12T13:35:42;102372.31;;;15.08;63.37
71791;BME280;59638;52.126;5.434;2022-10-12T13:40:43;102367.94;;;15.48;64.08
71791;BME280;59638;52.126;5.434;2022-10-12T13:43:18;102361.50;;;15.72;63.52
71791;BME280;59638;52.126;5.434;2022-10-12T13:45:46;102355.81;;;15.96;63.02
71791;BME280;59638;52.126;5.434;2022-10-12T13:48:18;102362.81;;;15.97;63.67
71791;BME280;59638;52.126;5.434;2022-10-12T13:51:24;102358.25;;;15.68;62.36
71791;BME280;59638;52.126;5.434;2022-10-12T13:53:51;102354.16;;;15.43;62.81
71791;BME280;59638;52.126;5.434;2022-10-12T13:56:28;102356.47;;;15.27;64.85
71791;BME280;59638;52.126;5.434;2022-10-12T13:58:58;102353.09;;;15.04;65.04
71791;BME280;59638;52.126;5.434;2022-10-12T14:01:25;102359.13;;;14.85;64.89
71791;BME280;59638;52.126;5.434;2022-10-12T14:04:04;102332.81;;;14.82;65.82
71791;BME280;59638;52.126;5.434;2022-10-12T14:06:33;102336.69;;;14.78;65.22
71791;BME280;59638;52.126;5.434;2022-10-12T14:09:18;102340.31;;;14.77;64.88
71791;BME280;59638;52.126;5.434;2022-10-12T14:11:47;102346.59;;;14.76;65.10
71791;BME280;59638;52.126;5.434;2022-10-12T14:14:44;102331.78;;;14.94;65.60
71791;BME280;59638;52.126;5.434;2022-10-12T14:17:19;102328.50;;;15.12;64.59
71791;BME280;59638;52.126;5.434;2022-10-12T14:19:47;102321.69;;;15.40;63.91
71791;BME280;59638;52.126;5.434;2022-10-12T14:22:20;102323.06;;;15.65;64.52
71791;BME280;59638;52.126;5.434;2022-10-12T14:24:50;102308.94;;;15.74;62.89